Time;durP1;ratioP1;P1;durP2;ratioP2;P2;SDS_P1;SDS_P2;PMS_P1;PMS_P2;Temp;Humidity;BMP_temperature;BMP_pressure;BME280_temperature;BME280_humidity;BME280_pressure;Samples;Min_cycle;Max_cycle;Signal;HPM_P1;HPM_P2
2023/03/05 00:01:40;;;;;;;97.30;36.43;;;;;;;-141.97;100.00;47911.19;5017596;28;20174;-89
2023/03/05 00:04:10;;;;;;;94.17;35.33;;;;;;;-141.97;100.00;47878.53;5017212;28;20194;-89
2023/03/05 00:06:35;;;;;;;86.73;37.80;;;;;;;-141.97;100.00;47891.97;5035472;28;20170;-89
2023/03/05 00:09:02;;;;;;;84.57;35.27;;;;;;;-141.97;100.00;47941.94;5035648;28;20433;-89
2023/03/05 00:11:32;;;;;;;79.13;34.03;;;;;;;-141.97;100.00;47911.19;5035286;28;20665;-89
2023/03/05 00:13:58;;;;;;;74.20;31.80;;;;;;;-141.97;100.00;47895.81;5017503;28;20408;-89
2023/03/05 00:16:25;;;;;;;76.87;34.17;;;;;;;-141.97;100.00;47953.50;5017598;28;20420;-89
2023/03/05 00:18:52;;;;;;;82.70;33.33;;;;;;;-141.97;100.00;47915.03;5035187;28;20466;-87
2023/03/05 00:21:29;;;;;;;85.50;34.87;;;;;;;-141.97;100.00;47934.25;5042127;28;20412;-87
2023/03/05 00:23:55;;;;;;;90.00;35.93;;;;;;;-141.97;100.00;47886.22;5023629;28;20448;-88
2023/03/05 00:26:25;;;;;;;84.13;35.33;;;;;;;-141.97;100.00;47957.34;5032952;28;20420;-88
2023/03/05 00:28:51;;;;;;;86.60;37.13;;;;;;;-141.97;100.00;47884.28;5043816;28;20168;-88
2023/03/05 00:31:21;;;;;;;86.53;38.97;;;;;;;-141.97;100.00;47934.25;5030795;28;20500;-88
2023/03/05 00:33:54;;;;;;;87.77;38.40;;;;;;;-141.97;100.00;47938.09;5032268;28;20161;-88
2023/03/05 00:36:20;;;;;;;87.40;38.80;;;;;;;-141.97;100.00;47920.81;5043194;28;20522;-88
2023/03/05 00:38:45;;;;;;;88.80;38.23;;;;;;;-141.97;100.00;47930.41;5043693;28;20566;-88
2023/03/05 00:41:11;;;;;;;98.63;42.13;;;;;;;-141.97;100.00;47999.63;5033772;28;20272;-88
2023/03/05 00:43:36;;;;;;;92.60;40.70;;;;;;;-141.97;100.00;47895.81;5041999;28;20229;-88
2023/03/05 00:46:02;;;;;;;89.27;40.23;;;;;;;-141.97;100.00;47961.19;5041893;28;20238;-88
2023/03/05 00:48:27;;;;;;;93.17;42.07;;;;;;;-141.97;100.00;47886.22;5042512;28;20186;-89
2023/03/05 00:50:52;;;;;;;95.83;42.63;;;;;;;-141.97;100.00;47870.81;5031413;28;20174;-89
2023/03/05 00:53:18;;;;;;;102.93;44.07;;;;;;;-141.97;100.00;47893.91;5042570;28;20172;-88
2023/03/05 00:55:44;;;;;;;94.47;42.00;;;;;;;-141.97;100.00;47934.25;5023790;28;20593;-88
2023/03/05 00:58:09;;;;;;;100.87;43.17;;;;;;;-141.97;100.00;47872.75;5043109;28;20177;-88
2023/03/05 01:00:35;;;;;;;94.30;41.53;;;;;;;-141.97;100.00;47780.47;5041071;28;20661;-89
2023/03/05 01:03:00;;;;;;;96.17;41.17;;;;;;;-141.97;100.00;47872.75;5033783;28;20181;-88
2023/03/05 01:05:26;;;;;;;91.70;40.80;;;;;;;-141.97;100.00;47826.63;5041859;28;20184;-88
2023/03/05 01:07:53;;;;;;;99.23;42.50;;;;;;;-141.97;100.00;47818.94;5042468;28;20169;-89
2023/03/05 01:10:19;;;;;;;94.27;40.17;;;;;;;-141.97;100.00;47822.78;5041750;28;20204;-88
2023/03/05 01:12:44;;;;;;;88.17;38.43;;;;;;;-141.97;100.00;47934.25;5035496;28;21005;-89
2023/03/05 01:15:10;;;;;;;88.40;39.00;;;;;;;-141.97;100.00;47818.94;5036077;28;20412;-88
2023/03/05 01:17:35;;;;;;;90.10;40.00;;;;;;;-141.97;100.00;47938.09;5034882;28;20172;-88
2023/03/05 01:20:01;;;;;;;89.27;38.80;;;;;;;-141.97;100.00;47918.88;5054413;28;20230;-88
2023/03/05 01:22:26;;;;;;;90.73;39.40;;;;;;;-141.97;100.00;47945.81;5036440;28;20173;-88
2023/03/05 01:24:52;;;;;;;97.60;41.47;;;;;;;-141.97;100.00;47899.66;5038120;28;20185;-88
2023/03/05 01:27:17;;;;;;;102.20;40.47;;;;;;;-141.97;100.00;47784.34;5038570;28;20179;-88
2023/03/05 01:29:42;;;;;;;98.37;41.33;;;;;;;-141.97;100.00;47845.84;5054583;28;20175;-88
2023/03/05 01:32:08;;;;;;;92.10;40.97;;;;;;;-141.97;100.00;47926.56;5053456;28;20170;-88
2023/03/05 01:34:36;;;;;;;97.20;40.07;;;;;;;-141.97;100.00;47922.72;5035270;28;20165;-88
2023/03/05 01:37:01;;;;;;;95.60;39.43;;;;;;;-141.97;100.00;47872.75;5053772;28;20226;-88
2023/03/05 01:39:27;;;;;;;96.37;40.23;;;;;;;-141.97;100.00;47855.44;5036512;28;20397;-88
2023/03/05 01:41:52;;;;;;;89.70;40.87;;;;;;;-141.97;100.00;47847.75;5052537;28;20223;-88
2023/03/05 01:44:24;;;;;;;99.07;43.13;;;;;;;-141.97;100.00;47895.81;5053232;28;20196;-88
2023/03/05 01:46:49;;;;;;;90.90;40.63;;;;;;;-141.97;100.00;47951.56;5035339;28;20169;-88
2023/03/05 01:49:34;;;;;;;87.40;41.27;;;;;;;-141.97;100.00;47882.38;5053715;28;20544;-88
2023/03/05 01:52:16;;;;;;;91.17;41.83;;;;;;;-141.97;100.00;47922.72;5036190;28;20176;-88
2023/03/05 01:54:49;;;;;;;84.67;38.53;;;;;;;-141.97;100.00;47922.72;5052760;28;20407;-88
2023/03/05 01:57:20;;;;;;;86.10;37.07;;;;;;;-141.97;100.00;47924.66;5053249;28;20415;-88
2023/03/05 01:59:49;;;;;;;85.30;37.50;;;;;;;-141.97;100.00;47924.66;5052951;28;20495;-88
2023/03/05 02:02:16;;;;;;;81.33;37.57;;;;;;;-141.97;100.00;47920.81;5035654;28;20394;-88
2023/03/05 02:04:47;;;;;;;81.80;36.97;;;;;;;-141.97;100.00;47911.19;5052750;28;20448;-88
2023/03/05 02:07:14;;;;;;;79.93;36.07;;;;;;;-141.97;100.00;47872.75;5051991;28;20411;-88
2023/03/05 02:09:40;;;;;;;77.07;35.03;;;;;;;-141.97;100.00;47890.06;5052189;28;20400;-88
2023/03/05 02:12:07;;;;;;;80.10;35.13;;;;;;;-141.97;100.00;47797.78;5050514;28;20414;-87
2023/03/05 02:14:33;;;;;;;74.43;34.73;;;;;;;-141.97;100.00;47991.94;5034306;28;20490;-88
2023/03/05 02:16:59;;;;;;;77.13;34.37;;;;;;;-141.97;100.00;47799.72;5051993;28;20408;-88
2023/03/05 02:19:24;;;;;;;75.30;33.73;;;;;;;-141.97;100.00;47913.13;5052452;28;20461;-88
2023/03/05 02:21:50;;;;;;;77.50;34.73;;;;;;;-141.97;100.00;47955.41;5034392;28;20214;-87
2023/03/05 02:24:30;;;;;;;78.33;34.77;;;;;;;-141.97;100.00;47786.25;5034358;28;20217;-88
2023/03/05 02:26:56;;;;;;;77.50;34.50;;;;;;;-141.97;100.00;47891.97;5053211;28;20621;-88
2023/03/05 02:29:23;;;;;;;72.07;33.77;;;;;;;-141.97;100.00;47911.19;5053702;28;20411;-88
2023/03/05 02:31:48;;;;;;;70.27;33.63;;;;;;;-141.97;100.00;47893.91;5034716;28;20821;-88
2023/03/05 02:34:14;;;;;;;76.40;33.83;;;;;;;-141.97;100.00;47824.69;5035195;28;20412;-88
2023/03/05 02:36:39;;;;;;;74.03;34.00;;;;;;;-141.97;100.00;47951.56;5035187;28;20166;-87
2023/03/05 02:39:05;;;;;;;74.33;31.47;;;;;;;-141.97;100.00;47807.41;5034507;28;20612;-86
2023/03/05 02:41:31;;;;;;;75.63;35.33;;;;;;;-141.97;100.00;47941.94;5033185;28;20269;-88
2023/03/05 02:43:56;;;;;;;78.77;35.30;;;;;;;-141.97;100.00;47901.59;5035782;28;20203;-87
2023/03/05 02:46:22;;;;;;;150.87;54.57;;;;;;;-141.97;100.00;47895.81;5037878;28;20636;-88
2023/03/05 02:48:48;;;;;;;177.90;64.53;;;;;;;-141.97;100.00;47890.06;5051793;28;20170;-88
2023/03/05 02:51:15;;;;;;;112.73;46.67;;;;;;;-141.97;100.00;47938.09;5052537;28;20275;-87
2023/03/05 02:53:40;;;;;;;106.53;45.30;;;;;;;-141.97;100.00;48007.31;5051641;28;20417;-88
2023/03/05 02:56:06;;;;;;;94.93;42.57;;;;;;;-141.97;100.00;47918.88;5052133;28;21002;-88
2023/03/05 02:58:31;;;;;;;349.57;159.77;;;;;;;-141.97;100.00;47936.19;5051857;28;20177;-87
2023/03/05 03:00:57;;;;;;;227.80;95.50;;;;;;;-141.97;100.00;47953.50;5033583;28;20173;-88
2023/03/05 03:03:22;;;;;;;114.80;48.80;;;;;;;-141.97;100.00;47884.28;5034144;28;20580;-88
2023/03/05 03:05:47;;;;;;;120.40;47.17;;;;;;;-141.97;100.00;47997.69;5050625;28;20252;-87
2023/03/05 03:08:14;;;;;;;89.37;40.73;;;;;;;-141.97;100.00;47872.75;5051919;28;20626;-87
2023/03/05 03:10:39;;;;;;;91.47;40.23;;;;;;;-141.97;100.00;47842.00;5051678;28;20157;-87
2023/03/05 03:13:04;;;;;;;86.47;38.23;;;;;;;-141.97;100.00;48030.38;5037850;28;20769;-88
2023/03/05 03:15:30;;;;;;;86.27;39.07;;;;;;;-141.97;100.00;47855.44;5055738;28;20166;-88
2023/03/05 03:17:55;;;;;;;81.47;36.80;;;;;;;-141.97;100.00;47899.66;5043153;28;20152;-88
2023/03/05 03:20:21;;;;;;;79.83;36.53;;;;;;;-141.97;100.00;47868.91;5061195;28;20299;-88
2023/03/05 03:22:47;;;;;;;78.17;36.27;;;;;;;-141.97;100.00;47847.75;5054925;28;20173;-87
2023/03/05 03:25:15;;;;;;;102.43;46.07;;;;;;;-141.97;100.00;47863.13;5054810;28;20239;-87
2023/03/05 03:27:41;;;;;;;78.80;37.20;;;;;;;-141.97;100.00;47982.31;5055161;28;20223;-88
2023/03/05 03:30:07;;;;;;;75.50;35.93;;;;;;;-141.97;100.00;47924.66;5053630;28;20423;-88
2023/03/05 03:32:32;;;;;;;76.57;35.30;;;;;;;-141.97;100.00;47866.97;5037187;28;20585;-88
2023/03/05 03:34:58;;;;;;;74.60;34.87;;;;;;;-141.97;100.00;47922.72;5038154;28;20404;-88
2023/03/05 03:37:24;;;;;;;71.60;34.17;;;;;;;-141.97;100.00;47870.81;5056890;28;20253;-88
2023/03/05 03:39:49;;;;;;;73.80;34.20;;;;;;;-141.97;100.00;47963.09;5054888;28;20168;-88
2023/03/05 03:42:20;;;;;;;71.60;32.00;;;;;;;-141.97;100.00;47888.13;5036600;28;20296;-88
2023/03/05 03:44:46;;;;;;;69.17;31.93;;;;;;;-141.97;100.00;47868.91;5053094;28;20626;-88
2023/03/05 03:47:11;;;;;;;68.67;31.57;;;;;;;-141.97;100.00;47941.94;5036620;28;20470;-88
2023/03/05 03:49:37;;;;;;;70.53;33.00;;;;;;;-141.97;100.00;48016.94;5037211;28;20176;-88
2023/03/05 03:52:03;;;;;;;106.80;43.20;;;;;;;-141.97;100.00;47913.13;5055153;28;20272;-87
2023/03/05 03:54:28;;;;;;;145.93;66.20;;;;;;;-141.97;100.00;47968.88;5037089;28;20173;-88
2023/03/05 03:56:54;;;;;;;86.03;39.13;;;;;;;-141.97;100.00;47857.38;5055401;28;20651;-87
2023/03/05 03:59:19;;;;;;;82.50;38.13;;;;;;;-141.97;100.00;47913.13;5055674;28;20311;-87
2023/03/05 04:01:46;;;;;;;87.30;39.07;;;;;;;-141.97;100.00;47895.81;5055956;28;20166;-87
2023/03/05 04:04:13;;;;;;;122.63;51.67;;;;;;;-141.97;100.00;47888.13;5037728;28;20646;-87
2023/03/05 04:06:38;;;;;;;184.20;74.37;;;;;;;-141.97;100.00;47888.13;5054147;28;20499;-88
2023/03/05 04:09:04;;;;;;;115.20;51.83;;;;;;;-141.97;100.00;47897.75;5054096;28;20418;-87
2023/03/05 04:11:30;;;;;;;96.27;42.63;;;;;;;-141.97;100.00;47872.75;5055443;28;20473;-87
2023/03/05 04:13:55;;;;;;;68.53;30.57;;;;;;;-141.97;100.00;47945.81;5056277;28;20543;-88
2023/03/05 04:16:21;;;;;;;66.93;30.50;;;;;;;-141.97;100.00;47826.63;5037223;28;20169;-87
2023/03/05 04:18:46;;;;;;;61.07;29.83;;;;;;;-141.97;100.00;47928.50;5054446;28;20458;-88
2023/03/05 04:21:12;;;;;;;69.90;32.93;;;;;;;-141.97;100.00;47941.94;5054812;28;20174;-88
2023/03/05 04:23:37;;;;;;;66.50;30.67;;;;;;;-141.97;100.00;47911.19;5036155;28;20196;-88
2023/03/05 04:26:03;;;;;;;70.67;31.77;;;;;;;-141.97;100.00;47926.56;5055246;28;20641;-88
2023/03/05 04:28:29;;;;;;;62.13;28.63;;;;;;;-141.97;100.00;47915.03;5055827;28;20598;-88
2023/03/05 04:30:54;;;;;;;56.90;28.20;;;;;;;-141.97;100.00;47999.63;5036931;28;20161;-88
2023/03/05 04:33:19;;;;;;;58.33;27.37;;;;;;;-141.97;100.00;48026.53;5036005;28;20169;-88
2023/03/05 04:35:45;;;;;;;62.13;28.27;;;;;;;-141.97;100.00;47866.97;5054502;28;20184;-88
2023/03/05 04:38:11;;;;;;;54.77;25.70;;;;;;;-141.97;100.00;47988.09;5053980;28;20165;-87
2023/03/05 04:40:36;;;;;;;53.20;26.07;;;;;;;-141.97;100.00;47911.19;5053973;28;20659;-88
2023/03/05 04:43:03;;;;;;;55.60;25.70;;;;;;;-141.97;100.00;47930.41;5055431;28;20322;-87
2023/03/05 04:45:28;;;;;;;59.90;28.80;;;;;;;-141.97;100.00;47970.78;5053664;28;20331;-89
2023/03/05 04:47:53;;;;;;;58.43;28.30;;;;;;;-141.97;100.00;47930.41;5036441;28;20446;-87
2023/03/05 04:50:19;;;;;;;71.07;31.17;;;;;;;-141.97;100.00;47878.53;5055599;28;20172;-87
2023/03/05 04:52:45;;;;;;;133.47;52.20;;;;;;;-141.97;100.00;47903.50;5036260;28;20173;-88
2023/03/05 04:55:13;;;;;;;119.83;49.23;;;;;;;-141.97;100.00;47895.81;5054110;28;20175;-88
2023/03/05 04:57:38;;;;;;;151.53;61.13;;;;;;;-141.97;100.00;47899.66;5037864;28;20789;-88
2023/03/05 05:00:07;;;;;;;116.93;49.87;;;;;;;-141.97;100.00;47926.56;5056718;28;20438;-87
2023/03/05 05:02:33;;;;;;;71.50;31.97;;;;;;;-141.97;100.00;47899.66;5057109;28;20179;-87
2023/03/05 05:04:58;;;;;;;57.83;27.73;;;;;;;-141.97;100.00;47930.41;5057232;28;20458;-88
2023/03/05 05:07:24;;;;;;;55.50;27.57;;;;;;;-141.97;100.00;47853.53;5038454;28;20180;-88
2023/03/05 05:09:49;;;;;;;56.87;24.80;;;;;;;-141.97;100.00;47945.81;5057037;28;20169;-88
2023/03/05 05:12:15;;;;;;;57.63;26.53;;;;;;;-141.97;100.00;47863.13;5038298;28;20637;-88
2023/03/05 05:14:40;;;;;;;57.13;26.23;;;;;;;-141.97;100.00;47959.25;5038652;28;20176;-88
2023/03/05 05:17:06;;;;;;;75.97;35.07;;;;;;;-141.97;100.00;47961.19;5057087;28;20173;-88
2023/03/05 05:19:33;;;;;;;71.27;32.53;;;;;;;-141.97;100.00;47930.41;5038696;28;20633;-88
2023/03/05 05:21:58;;;;;;;71.30;31.80;;;;;;;-141.97;100.00;47930.41;5056652;28;20166;-88
2023/03/05 05:24:24;;;;;;;95.30;41.57;;;;;;;-141.97;100.00;47890.06;5037229;28;20497;-88
2023/03/05 05:26:50;;;;;;;135.57;58.87;;;;;;;-141.97;100.00;47984.25;5037400;28;20629;-88
2023/03/05 05:29:15;;;;;;;122.80;54.20;;;;;;;-141.97;100.00;47763.19;5037176;28;20206;-88
2023/03/05 05:31:41;;;;;;;125.57;55.13;;;;;;;-141.97;100.00;47945.81;5055487;28;20173;-87
2023/03/05 05:34:06;;;;;;;140.53;65.37;;;;;;;-141.97;100.00;47847.75;5054252;28;20173;-88
2023/03/05 05:36:32;;;;;;;185.73;87.87;;;;;;;-141.97;100.00;47842.00;5037835;28;20173;-87
2023/03/05 05:38:57;;;;;;;180.03;73.43;;;;;;;-141.97;100.00;47803.56;5054810;28;20581;-87
2023/03/05 05:41:22;;;;;;;209.10;75.80;;;;;;;-141.97;100.00;47980.41;5054970;28;20200;-86
2023/03/05 05:43:48;;;;;;;163.70;62.57;;;;;;;-141.97;100.00;47843.91;5040058;28;20225;-86
2023/03/05 05:46:16;;;;;;;296.83;97.53;;;;;;;-141.97;100.00;47901.59;5055973;28;20150;-88
2023/03/05 05:48:42;;;;;;;305.93;103.77;;;;;;;-141.97;100.00;47924.66;5036797;28;20169;-88
2023/03/05 05:51:10;;;;;;;243.43;81.83;;;;;;;-141.97;100.00;47965.03;5037484;28;20416;-89
2023/03/05 05:53:36;;;;;;;456.03;139.20;;;;;;;-141.97;100.00;47943.88;5053724;28;20414;-87
2023/03/05 05:56:08;;;;;;;374.73;112.03;;;;;;;-141.97;100.00;47903.50;5035788;28;20416;-87
2023/03/05 05:58:34;;;;;;;99.53;43.73;;;;;;;-141.97;100.00;47809.31;5052280;28;20173;-86
2023/03/05 06:00:59;;;;;;;189.03;61.53;;;;;;;-141.97;100.00;47905.44;5051770;28;20806;-87
2023/03/05 06:03:25;;;;;;;531.47;174.10;;;;;;;-141.97;100.00;47972.72;5051428;28;20412;-88
2023/03/05 06:05:53;;;;;;;117.97;45.23;;;;;;;-141.97;100.00;47891.97;5036066;28;20161;-87
2023/03/05 06:08:19;;;;;;;86.37;35.50;;;;;;;-141.97;100.00;47965.03;5053336;28;20165;-87
2023/03/05 06:10:44;;;;;;;70.20;33.83;;;;;;;-141.97;100.00;47843.91;5052646;28;20482;-87
2023/03/05 06:13:09;;;;;;;60.70;30.97;;;;;;;-141.97;100.00;47965.03;5035960;28;20165;-88
2023/03/05 06:15:35;;;;;;;60.07;27.10;;;;;;;-141.97;100.00;47913.13;5053950;28;20280;-88
2023/03/05 06:18:00;;;;;;;99.30;50.23;;;;;;;-141.97;100.00;47947.72;5035769;28;20282;-86
2023/03/05 06:20:27;;;;;;;98.93;47.37;;;;;;;-141.97;99.67;47928.50;5052849;28;20645;-88
2023/03/05 06:22:54;;;;;;;262.13;92.77;;;;;;;-141.97;98.44;47872.75;5038040;28;20177;-88
2023/03/05 06:25:19;;;;;;;180.07;71.63;;;;;;;-141.97;97.30;47897.75;5062080;28;20459;-87
2023/03/05 06:27:45;;;;;;;205.83;79.23;;;;;;;-141.97;96.38;47903.50;5073668;28;20170;-89
2023/03/05 06:30:14;;;;;;;193.83;75.47;;;;;;;-141.97;95.09;47915.03;5050696;28;20637;-88
2023/03/05 06:32:40;;;;;;;171.10;67.97;;;;;;;-141.97;94.80;47830.47;5056276;28;20403;-88
2023/03/05 06:35:05;;;;;;;98.40;44.77;;;;;;;-141.97;93.38;47953.50;5051723;28;20396;-89
2023/03/05 06:37:32;;;;;;;69.80;33.80;;;;;;;-141.97;93.21;47909.28;5052544;28;20181;-87
2023/03/05 06:39:57;;;;;;;70.53;32.47;;;;;;;-141.97;93.94;47986.16;5057345;28;20256;-88
2023/03/05 06:42:23;;;;;;;70.20;34.10;;;;;;;-141.97;94.06;47984.25;5055166;28;20586;-88
2023/03/05 06:44:48;;;;;;;58.33;26.60;;;;;;;-141.97;94.52;47963.09;5033682;28;20293;-88
2023/03/05 06:47:14;;;;;;;52.93;26.50;;;;;;;-141.97;95.44;47915.03;5052263;28;20284;-88
2023/03/05 06:49:39;;;;;;;46.57;23.10;;;;;;;-141.97;95.59;47957.34;5039299;28;20173;-90
2023/03/05 06:52:06;;;;;;;48.83;22.47;;;;;;;-141.97;95.41;47865.06;5044813;28;20232;-87
2023/03/05 06:54:32;;;;;;;60.03;31.13;;;;;;;-141.97;94.66;47984.25;5056043;28;20188;-88
2023/03/05 06:56:57;;;;;;;54.70;29.67;;;;;;;-141.97;92.88;47957.34;5055419;28;20515;-87
2023/03/05 06:59:24;;;;;;;45.20;21.53;;;;;;;-141.97;92.06;47930.41;5033509;28;20172;-88
2023/03/05 07:01:49;;;;;;;45.30;23.53;;;;;;;-141.97;90.87;47916.97;5033220;28;20180;-87
2023/03/05 07:04:16;;;;;;;54.77;26.83;;;;;;;-141.97;90.04;47868.91;5053651;28;20189;-87
2023/03/05 07:06:42;;;;;;;60.00;30.83;;;;;;;-141.97;88.11;47915.03;5044395;28;20174;-88
2023/03/05 07:09:12;;;;;;;47.77;25.80;;;;;;;-141.97;85.73;47915.03;5040676;28;20185;-88
2023/03/05 07:11:37;;;;;;;39.63;20.40;;;;;;;-141.97;83.95;47936.19;5061637;28;20165;-87
2023/03/05 07:14:03;;;;;;;42.23;21.80;;;;;;;-141.97;84.61;47778.56;5037750;28;20264;-88
2023/03/05 07:16:31;;;;;;;48.57;23.93;;;;;;;-141.97;83.70;47936.19;5054692;28;20166;-88
2023/03/05 07:18:58;;;;;;;48.20;24.00;;;;;;;-141.97;82.11;47899.66;5034413;28;20256;-88
2023/03/05 07:21:27;;;;;;;47.60;23.93;;;;;;;-141.97;79.90;47957.34;5036171;28;20618;-88
2023/03/05 07:23:54;;;;;;;33.73;18.67;;;;;;;-141.97;79.40;47916.97;5035227;28;20637;-88
2023/03/05 07:26:19;;;;;;;37.80;19.00;;;;;;;-141.97;80.21;47915.03;5034948;28;20169;-87
2023/03/05 07:28:45;;;;;;;43.23;23.23;;;;;;;-141.97;78.81;47918.88;5033714;28;20162;-88
2023/03/05 07:31:17;;;;;;;33.43;17.47;;;;;;;-141.97;77.55;47924.66;5033637;28;20264;-88
2023/03/05 07:33:44;;;;;;;33.90;16.83;;;;;;;-141.97;79.58;47943.88;5053296;28;20632;-88
2023/03/05 07:36:10;;;;;;;41.37;21.03;;;;;;;-141.97;80.48;47870.81;5033667;28;20169;-88
2023/03/05 07:38:36;;;;;;;37.23;20.37;;;;;;;-141.97;81.30;47905.44;5033496;28;20200;-90
2023/03/05 07:41:07;;;;;;;48.47;27.20;;;;;;;-141.97;81.22;47899.66;5051796;28;20197;-91
2023/03/05 07:43:32;;;;;;;35.63;18.10;;;;;;;-141.97;79.31;47920.81;5033803;28;20255;-90
2023/03/05 07:45:58;;;;;;;43.03;21.83;;;;;;;-141.97;76.72;47974.63;5033813;28;20173;-89
2023/03/05 07:48:23;;;;;;;41.70;21.00;;;;;;;-141.97;74.73;47886.22;5049810;28;20201;-91
2023/03/05 07:50:49;;;;;;;32.87;17.67;;;;;;;-141.97;73.04;47953.50;5051036;28;20545;-88
2023/03/05 07:53:15;;;;;;;30.40;15.97;;;;;;;-141.97;71.57;47922.72;5030917;28;20246;-88
2023/03/05 07:55:45;;;;;;;30.73;16.33;;;;;;;-141.97;71.30;47832.38;5046727;28;20185;-88
2023/03/05 07:58:11;;;;;;;38.93;21.33;;;;;;;-141.97;70.13;47742.03;5052494;28;20200;-89
2023/03/05 08:00:37;;;;;;;31.07;15.10;;;;;;;-141.97;69.46;47793.94;5054676;28;20622;-88
2023/03/05 08:03:03;;;;;;;33.23;17.37;;;;;;;-141.97;69.82;47903.50;5036090;28;20192;-91
2023/03/05 08:05:28;;;;;;;29.43;16.27;;;;;;;-141.97;69.72;47911.19;5053420;28;20189;-87
2023/03/05 08:07:53;;;;;;;30.93;16.87;;;;;;;-141.97;70.33;47976.56;5036559;28;20656;-89
2023/03/05 08:10:19;;;;;;;33.40;17.70;;;;;;;-141.97;70.21;47878.53;5055258;28;20322;-91
2023/03/05 08:12:44;;;;;;;37.60;18.33;;;;;;;-141.97;70.18;47961.19;5038449;28;20172;-89
2023/03/05 08:15:10;;;;;;;37.37;20.77;;;;;;;-141.97;70.81;47834.31;5036834;28;20162;-90
2023/03/05 08:17:36;;;;;;;39.80;20.03;;;;;;;-141.97;70.82;47970.78;5037323;28;20617;-89
2023/03/05 08:20:04;;;;;;;37.77;21.03;;;;;;;-141.97;70.30;47976.56;5037922;28;20197;-90
2023/03/05 08:22:33;;;;;;;36.17;17.87;;;;;;;-141.97;71.12;47955.41;5038192;28;20161;-92
2023/03/05 08:24:58;;;;;;;38.97;20.03;;;;;;;-141.97;72.26;47792.03;5039642;28;20185;-89
2023/03/05 08:27:23;;;;;;;38.53;21.77;;;;;;;-141.97;72.29;47945.81;5037159;28;20227;-89
2023/03/05 08:29:49;;;;;;;41.87;23.30;;;;;;;-141.97;71.86;47974.63;5056149;28;20640;-88
2023/03/05 08:32:14;;;;;;;42.07;20.57;;;;;;;-141.97;72.75;48015.00;5035848;28;20249;-89
2023/03/05 08:34:40;;;;;;;42.93;21.30;;;;;;;-141.97;72.51;47878.53;5036016;28;21371;-87
2023/03/05 08:37:06;;;;;;;38.73;19.77;;;;;;;-141.97;71.86;47822.78;5035732;28;20166;-88
2023/03/05 08:39:32;;;;;;;45.30;22.80;;;;;;;-141.97;71.73;47761.25;5035548;28;20287;-88
2023/03/05 08:41:57;;;;;;;51.33;27.07;;;;;;;-141.97;69.99;47972.72;5053890;28;20221;-89
2023/03/05 08:44:22;;;;;;;43.40;23.57;;;;;;;-141.97;67.94;47843.91;5054339;28;20197;-89
2023/03/05 08:46:48;;;;;;;48.67;25.30;;;;;;;-141.97;67.17;47840.06;5054544;28;20249;-89
2023/03/05 08:49:13;;;;;;;60.40;30.70;;;;;;;-141.97;65.73;47884.28;5053910;28;20582;-89
2023/03/05 08:51:39;;;;;;;42.77;22.80;;;;;;;-141.97;65.96;47705.53;5035629;28;20212;-90
2023/03/05 08:54:06;;;;;;;48.47;24.43;;;;;;;-141.97;65.23;47888.13;5053808;28;20189;-88
2023/03/05 08:56:35;;;;;;;53.13;27.63;;;;;;;-141.97;65.88;47815.09;5054096;28;20157;-89
2023/03/05 08:59:02;;;;;;;61.03;30.30;;;;;;;-141.97;65.79;47882.38;5036406;28;20226;-88
2023/03/05 09:01:29;;;;;;;48.13;24.20;;;;;;;-141.97;67.87;47868.91;5053603;28;20204;-88
2023/03/05 09:03:55;;;;;;;46.90;25.87;;;;;;;-141.97;68.11;47834.31;5053321;28;20185;-86
2023/03/05 09:06:20;;;;;;;42.00;21.60;;;;;;;-141.97;66.71;47907.34;5053694;28;20287;-87
2023/03/05 09:08:45;;;;;;;40.27;22.10;;;;;;;-141.97;68.27;47778.56;5053604;28;20164;-87
2023/03/05 09:11:12;;;;;;;44.23;21.27;;;;;;;-141.97;67.80;47907.34;5035503;28;20173;-87
2023/03/05 09:13:38;;;;;;;46.17;24.43;;;;;;;-141.97;67.99;48038.06;5054057;28;20535;-87
2023/03/05 09:16:07;;;;;;;41.53;21.40;;;;;;;-141.97;67.90;47815.09;5035455;28;20244;-87
2023/03/05 09:18:35;;;;;;;43.30;22.97;;;;;;;-141.97;68.18;47890.06;5053315;28;20165;-89
2023/03/05 09:21:04;;;;;;;41.10;20.33;;;;;;;-141.97;68.49;47965.03;5053123;28;20150;-89
2023/03/05 09:23:29;;;;;;;46.37;20.67;;;;;;;-141.97;68.86;47897.75;5036729;28;20173;-89
2023/03/05 09:25:54;;;;;;;40.27;20.50;;;;;;;-141.97;67.73;47868.91;5055385;28;20264;-88
2023/03/05 09:28:20;;;;;;;45.03;22.77;;;;;;;-141.97;67.31;47786.25;5037746;28;20166;-88
2023/03/05 09:30:45;;;;;;;39.00;19.50;;;;;;;-141.97;66.02;47884.28;5056651;28;20161;-88
2023/03/05 09:33:11;;;;;;;39.80;20.40;;;;;;;-141.97;67.13;47990.00;5037016;28;20158;-87
2023/03/05 09:35:36;;;;;;;38.63;19.17;;;;;;;-141.97;66.04;47868.91;5036292;28;20173;-88
2023/03/05 09:38:03;;;;;;;41.10;19.17;;;;;;;-141.97;65.06;47732.44;5036242;28;20255;-88
2023/03/05 09:41:06;;;;;;;222.53;88.57;;;;;;;-141.97;64.93;47880.44;5036590;28;20208;-88
2023/03/05 09:43:37;;;;;;;42.60;20.37;;;;;;;-141.97;63.64;47893.91;4977128;28;20242;-88
2023/03/05 09:46:18;;;;;;;55.10;27.63;;;;;;;-141.97;61.13;47884.28;4976098;28;20175;-87
2023/03/05 09:48:49;;;;;;;56.07;28.50;;;;;;;-141.97;59.62;47924.66;4991749;28;20195;-89
2023/03/05 09:51:24;;;;;;;58.20;30.10;;;;;;;-141.97;59.98;47899.66;4975110;28;20175;-88
2023/03/05 09:53:59;;;;;;;39.87;21.53;;;;;;;-141.97;59.34;47861.22;4992362;28;20191;-88
2023/03/05 09:56:29;;;;;;;37.37;19.77;;;;;;;-141.97;60.72;47884.28;4991252;28;20170;-87
2023/03/05 09:59:02;;;;;;;40.80;21.97;;;;;;;-141.97;60.18;47863.13;4990968;28;20225;-86
2023/03/05 10:01:34;;;;;;;36.63;18.83;;;;;;;-141.97;60.41;47786.25;4992118;28;20627;-87
2023/03/05 10:04:11;;;;;;;35.20;18.13;;;;;;;-141.97;60.29;47861.22;4989925;28;20206;-86
2023/03/05 10:06:51;;;;;;;52.10;28.50;;;;;;;-141.97;59.87;47817.00;4990659;28;20191;-86
2023/03/05 10:10:04;;;;;;;33.37;16.90;;;;;;;-141.97;59.05;47903.50;4990258;28;20199;-87
2023/03/05 10:12:41;;;;;;;35.90;17.20;;;;;;;-141.97;60.76;47868.91;4932850;29;20169;-86
2023/03/05 10:15:28;;;;;;;33.60;16.80;;;;;;;-141.97;59.56;47830.47;4932905;29;20639;-86
2023/03/05 10:17:59;;;;;;;39.50;18.87;;;;;;;-141.97;59.48;47865.06;4933207;29;20173;-88
2023/03/05 10:20:29;;;;;;;32.33;17.10;;;;;;;-141.97;59.73;47857.38;4953666;28;20192;-87
2023/03/05 10:23:03;;;;;;;36.07;17.87;;;;;;;-141.97;59.09;47876.59;4970997;28;20267;-88
2023/03/05 10:25:56;;;;;;;41.23;19.73;;;;;;;-141.97;58.93;47849.69;4970877;28;20262;-88
2023/03/05 10:28:33;;;;;;;38.20;17.83;;;;;;;-141.97;58.62;47838.16;4971521;28;20565;-87
2023/03/05 10:31:07;;;;;;;43.87;22.57;;;;;;;-141.97;59.61;47895.81;4972324;28;20238;-89
2023/03/05 10:33:46;;;;;;;50.17;25.20;;;;;;;-141.97;58.18;47878.53;4971912;28;20198;-87
2023/03/05 10:36:32;;;;;;;40.67;21.57;;;;;;;-141.97;58.76;47870.81;4956031;28;20779;-88
2023/03/05 10:39:17;;;;;;;34.23;15.60;;;;;;;-141.97;58.67;47895.81;4972072;28;20187;-86
2023/03/05 10:42:07;;;;;;;38.57;18.70;;;;;;;-141.97;58.95;47845.84;4955762;28;20223;-87
2023/03/05 10:44:43;;;;;;;69.93;37.77;;;;;;;-141.97;58.00;47855.44;4971463;28;20362;-87
2023/03/05 10:47:20;;;;;;;33.43;17.20;;;;;;;-141.97;57.65;47897.75;5012190;28;20190;-87
2023/03/05 10:49:51;;;;;;;37.13;19.20;;;;;;;-141.97;58.01;47842.00;5031728;28;20231;-87
2023/03/05 10:52:21;;;;;;;35.50;16.37;;;;;;;-141.97;57.16;47984.25;5032009;28;20241;-87
2023/03/05 10:54:46;;;;;;;33.93;16.17;;;;;;;-141.97;56.52;47868.91;5031871;28;20160;-87
2023/03/05 10:57:21;;;;;;;31.40;17.00;;;;;;;-141.97;55.11;47974.63;5031605;28;20256;-88
2023/03/05 10:59:50;;;;;;;33.00;18.30;;;;;;;-141.97;55.41;47840.06;5031460;28;20165;-87